This is the latest recevied weather packets stored in our database for station/object F4AMY-13. If no packets are shown the sender has not sent any weather packets the latest 10 day(s).
| Time | Temp. | Humidity | Pressure | Rain* | Wind** | Luminosity | Snow |
|---|---|---|---|---|---|---|---|
| 1777284061 | 18.89° C | 72% | 1017.7 hPa | 0 mm | 52.75 m/s, ° | 118 W/m² | - |
| 1777283761 | 18.89° C | 71% | 1018 hPa | 0 mm | 50.96 m/s, ° | 114 W/m² | - |
| 1777283461 | 18.33° C | 72% | 1017.8 hPa | 0 mm | 51.86 m/s, ° | 116 W/m² | - |
| 1777283162 | 18.33° C | 70% | 1017.9 hPa | 0 mm | 53.64 m/s, ° | 120 W/m² | - |
| 1777283161 | 18.33° C | 70% | 1017.9 hPa | 0 mm | 53.64 m/s, ° | 120 W/m² | - |
| 1777282861 | 18.33° C | 70% | 1017.9 hPa | 0 mm | 53.64 m/s, ° | 120 W/m² | - |
| 1777282561 | 17.78° C | 74% | 1018.1 hPa | 0 mm | 50.07 m/s, ° | 112 W/m² | - |
| 1777282261 | 17.78° C | 74% | 1018 hPa | 0 mm | 48.73 m/s, ° | 109 W/m² | - |
| 1777281961 | 17.78° C | 73% | 1018 hPa | 0 mm | 50.07 m/s, ° | 112 W/m² | - |
| 1777281661 | 17.78° C | 75% | 1017.9 hPa | 0 mm | 49.17 m/s, ° | 110 W/m² | - |
| 1777281361 | 17.78° C | 75% | 1017.9 hPa | 0 mm | 48.28 m/s, ° | 108 W/m² | - |
| 1777281061 | 17.22° C | 77% | 1018 hPa | 0 mm | 45.15 m/s, ° | 101 W/m² | - |
| 1777280761 | 17.22° C | 76% | 1018.1 hPa | 0 mm | 42.02 m/s, ° | 94 W/m² | - |
| 1777280461 | 17.22° C | 75% | 1018.1 hPa | 0 mm | 38 m/s, ° | 85 W/m² | - |
| 1777280161 | 17.22° C | 78% | 1018 hPa | 0 mm | 35.76 m/s, ° | 80 W/m² | - |
| 1777279861 | 17.22° C | 77% | 1018 hPa | 0 mm | 37.1 m/s, ° | 83 W/m² | - |
| 1777279561 | 16.67° C | 77% | 1018 hPa | 0 mm | 36.21 m/s, ° | 81 W/m² | - |
| 1777279260 | 16.67° C | 77% | 1018.1 hPa | 0 mm | 36.66 m/s, ° | 82 W/m² | - |
| 1777278960 | 16.67° C | 78% | 1018 hPa | 0 mm | 35.32 m/s, ° | 79 W/m² | - |
| 1777278660 | 16.67° C | 78% | 1018 hPa | 0 mm | 32.63 m/s, ° | 73 W/m² | - |
| 1777278360 | 16.11° C | 79% | 1018 hPa | 0 mm | 35.32 m/s, ° | 79 W/m² | - |
| 1777278060 | 16.11° C | 78% | 1017.9 hPa | 0 mm | 33.53 m/s, ° | 75 W/m² | - |
| 1777277760 | 16.11° C | 79% | 1018.1 hPa | 0 mm | 30.4 m/s, ° | 68 W/m² | - |
| 1777277460 | 16.11° C | 79% | 1017.8 hPa | 0 mm | 29.06 m/s, ° | 65 W/m² | - |
| 1777277160 | 16.11° C | 80% | 1018 hPa | 0 mm | 25.93 m/s, ° | 58 W/m² | - |
* Rain latest hour (hover to see other rain measurements)
** Current wind speed in m/s (hover to see current wind gust speed)